Charter Quote
Worldwide +1-877-727-2538 Call
Select Language Lang
SAFETY RELIABILITY EXPERIENCE

Private Jet Charter Services - Lishe (ZSNB)

Paramount Business Jets offers private jet charter flights and luxury airliner charters to and from Lishe.

AIRPORT INFORMATION
ICAOZSNB
LOCATIONNinbo, China
FACILITY TYPEAIRPORT

At Paramount Business Jets you can hire chartered private jets to and from Lishe with as little as 4 hours of notice. All flights booked via Paramount Business Jets are operated by certified direct air carriers that meet and exceed the FAA part 135 and 121 protocol or a foreign equivalent safety authority. Furthermore, Paramount Business Jets subscribes to ARGUS for their third party safety checks of operators, aircraft, and crews prior each and every flight to and from Lishe and worldwide.

  • Quote a trip using Lishe or call us 24/7 - 365 days a year at +1-877-727-2538.
Questions? Call +1-877-727-2538

METAR Weather Data at Lishe, ZSNB

STATIONZSNB
OBSERVEDTue Jul 16, 04:00 UTC
NOWTue Jul 16, 04:42 UTC
AGE42 min ago
WINDSSE at 7 mph
VISIBILITY16 miles
CLOUDSmostly cloudy
TEMP84°F (29°C)
DEWPT77°F (25°C)
HUMIDITY79%
HEAT INDEX94°F (34°C)
BAROMETER1007 hPa (29.74 in Hg)
METARZSNB 160400Z 15003MPS 100V190 9999 BKN016 29/25 Q1007 NOSIG

Call us on +1-877-727-2538 (24 Hours) to Hire a Private Jet or Get a Quick Quote.

Find Airports Near any Location

Processing
...